Search for airport 
image banner adimage banner adimage banner ad
image banner ad

KPHL - Philadelphia Intl

Located in Philadelphia, United States

ICAO - PHL, IATA - PHL

Data provided by Airmate  

General information

Coordinates: N39°52'20" W75°14'26"
Elevation is 36 feet MSL.
Magnetic variation is -12° East
View others Airports in Pennsylvania

Operational data

Special qualification required
Current time UTC:
Current local time:
Weather
METAR: KPHL 071354Z 08006KT 10SM FEW110 BKN230 15/01 A2992 RMK AO2 SLP130 T01500011
TAF: KPHL 071120Z 0712/0818 05004KT P6SM FEW100 SCT250 FM071700 14007KT P6SM SCT040 OVC070 FM072100 14006KT P6SM VCSH BKN070 FM080300 26004KT 6SM -SHRA BR SCT025 OVC040 FM080900 00000KT P6SM BKN025
View NOTAMs / SUP AIP / TFR affecting this airport [VIEW]
Communications frequencies: [VIEW]

Runways:

RWY identifierQFULength (ft)Width (ft)SurfaceLDA (ft)
0875°5001150ASPH5001
26256°5001150ASPH5001
09R75°12000200ASPH12000
27L255°12000200ASPH9912
09L75°9500150ASPH9500
27R255°9500150ASPH8864
17159°6500150ASPH6500
35339°6500150ASPH6500

Airport contact information

Address: Philadelphia United States

Satellite view of KPHL